• Join FlightAware (Why Join?)
  • Login
  • US Flag 
03:32AM EDT


 

Airport Tracker/Info


-or-


 

Live Flight TrackerFlight Track Log ✈ KFS726 ✈ 23-Apr-2013 ✈ KALB - KOCF

Flight Track Log - Related Links

Times and Time Zones

All times are in EDT time to prevent confusion due to time zone crossing. See the KFS726 flight status page for this flight to view local times or setup timezone preferences in your user account.

Time Position Orientation Groundspeed Altitude Reporting Facility
EDT Latitude Longitude Course Direction KTS MPH feet Rate Location/Type
04:13PM 42.7256 -73.8053 231° Southwest 150 173 1,000  Level Boston Center
04:14PM 42.6958 -73.8553 231° Southwest 223 257 2,300 2,040 Climbing Boston Center
04:16PM 42.7125 -74.0169 278° West 285 328 6,700 2,580 Climbing Boston Center
04:17PM 42.7256 -74.1161 280° West 279 321 9,300 1,860 Climbing Boston Center
04:18PM 42.7322 -74.2264 275° West 279 321 10,500 1,620 Climbing Boston Center
04:19PM 42.7178 -74.3506 261° West 310 357 12,600 1,680 Climbing Boston Center
04:20PM 42.6886 -74.4739 252° West 337 388 13,900 1,320 Climbing Boston Center
04:21PM 42.6633 -74.6000 255° West 366 421 15,300 1,500 Climbing Boston Center
04:22PM 42.6353 -74.7572 256° West 392 451 17,000 1,380 Climbing Boston Center
04:23PM 42.6136 -74.8919 258° West 404 465 18,100 1,260 Climbing Boston Center
04:24PM 42.5811 -75.0456 254° West 412 474 19,600 1,500 Climbing Boston Center
04:25PM 42.4869 -75.1486 219° Southwest 405 466 21,200 1,620 Climbing Boston Center
04:27PM 42.2747 -75.3417 214° Southwest 441 507 24,800 1,380 Climbing New York Center
04:28PM 42.1753 -75.4328 214° Southwest 453 521 25,700 540 Climbing New York Center
04:29PM 42.0697 -75.5258 213° Southwest 459 528 26,000 120 Climbing New York Center
04:30PM 41.9639 -75.6214 214° Southwest 459 528 26,000  Level New York Center
04:31PM 41.8558 -75.7164 213° Southwest 459 528 26,000  Level New York Center
04:32PM 41.7775 -75.8442 231° Southwest 444 511 26,000 1,080 Level New York Center
04:33PM 41.7456 -76.0031 255° West 435 501 28,200 1,740 Climbing New York Center
04:34PM 41.7139 -76.1533 254° West 430 495 29,600 1,080 Climbing New York Center
04:35PM 41.6394 -76.2778 231° Southwest 425 489 30,400 840 Climbing New York Center
04:36PM 41.5236 -76.3486 205° Southwest 425 489 31,300 900 Climbing New York Center
04:37PM 41.3931 -76.4264 204° Southwest 450 518 32,200 600 Climbing New York Center
04:38PM 41.2728 -76.5019 205° Southwest 468 539 32,600 480 Climbing New York Center
04:39PM 41.1550 -76.5664 202° Southwest 474 545 33,200 540 Climbing New York Center
04:40PM 41.0369 -76.6386 205° Southwest 469 540 33,800 360 Climbing New York Center
04:41PM 40.9144 -76.7106 204° Southwest 469 540 34,000 60 Climbing New York Center
04:42PM 40.7922 -76.7794 203° Southwest 474 545 34,000  Level New York Center
04:43PM 40.6697 -76.8536 205° Southwest 479 551 34,000  Level New York Center
04:44PM 40.5469 -76.9275 205° Southwest 479 551 34,000 -60 Level New York Center
04:45PM 40.4247 -76.9956 203° Southwest 479 551 33,900  Descending New York Center
04:46PM 40.3017 -77.0744 206° Southwest 490 564 34,000  Climbing New York Center
04:47PM 40.1714 -77.1331 199° South 490 564 34,000  Level New York Center
04:49PM 39.8958 -77.2656 200° South 503 579 34,000  Level Washington Center
04:50PM 39.7636 -77.3300 201° Southwest 503 579 34,000  Level Washington Center
04:51PM 39.6336 -77.3942 201° Southwest 508 585 34,000  Level Washington Center
04:52PM 39.5014 -77.4581 200° South 508 585 34,000  Level Washington Center
04:53PM 39.3711 -77.5219 201° Southwest 513 590 34,000  Level Washington Center
04:54PM 39.2367 -77.5853 200° South 513 590 34,000  Level Washington Center
04:56PM 38.9719 -77.7117 200° South 513 590 34,000  Level Washington Center
04:57PM 38.8542 -77.7642 199° South 513 590 34,000  Level Washington Center
04:58PM 38.7175 -77.8319 201° Southwest 519 597 34,000  Level Washington Center
04:59PM 38.5892 -77.8919 200° South 514 592 34,000  Level Washington Center
05:00PM 38.4586 -77.9514 200° South 509 586 34,000  Level Washington Center
05:01PM 38.3383 -78.0322 208° Southwest 502 578 34,000  Level Washington Center
05:02PM 38.2319 -78.1319 216° Southwest 491 565 34,000  Level Washington Center
05:03PM 38.1214 -78.2286 215° Southwest 491 565 34,000  Level Washington Center
05:04PM 38.0128 -78.3250 215° Southwest 486 559 34,000  Level Washington Center
05:05PM 37.9086 -78.4158 215° Southwest 479 551 34,000  Level Washington Center
05:06PM 37.8000 -78.5117 215° Southwest 484 557 34,000  Level Washington Center
05:07PM 37.6892 -78.6044 214° Southwest 484 557 34,000  Level Washington Center
05:08PM 37.5783 -78.6969 213° Southwest 484 557 34,000  Level Washington Center
05:09PM 37.4589 -78.7994 214° Southwest 479 551 34,000  Level Washington Center
05:10PM 37.3500 -78.8917 214° Southwest 479 551 34,000  Level Washington Center
05:11PM 37.2431 -78.9836 214° Southwest 479 551 34,000  Level Washington Center
05:12PM 37.1319 -79.0722 212° Southwest 479 551 34,000  Level Washington Center
05:13PM 37.0269 -79.1639 215° Southwest 479 551 34,000  Level Washington Center
05:14PM 36.9178 -79.2550 214° Southwest 479 551 34,000  Level Washington Center
05:15PM 36.8236 -79.3361 215° Southwest 474 545 34,000  Level Washington Center
05:16PM 36.7144 -79.4267 214° Southwest 474 545 34,000  Level Washington Center
05:18PM 36.5075 -79.5936 213° Southwest 467 537 34,000  Level Atlanta Center
05:19PM 36.4022 -79.6819 214° Southwest 467 537 34,000  Level Atlanta Center
05:20PM 36.2950 -79.7728 214° Southwest 467 537 34,000  Level Atlanta Center
05:21PM 36.1853 -79.8558 211° Southwest 467 537 34,000  Level Atlanta Center
05:22PM 36.0694 -79.9544 215° Southwest 439 505 34,000  Level Atlanta Center
05:23PM 35.9528 -80.0217 205° Southwest 445 512 34,000  Level Atlanta Center
05:24PM 35.8297 -80.0817 202° Southwest 463 533 34,000  Level Atlanta Center
05:25PM 35.7064 -80.1439 202° Southwest 468 539 34,100  Climbing Atlanta Center
05:26PM 35.5917 -80.2031 203° Southwest 487 560 34,000  Descending Atlanta Center
05:27PM 35.4703 -80.2647 202° Southwest 487 560 34,100  Climbing Atlanta Center
05:28PM 35.3492 -80.3264 203° Southwest 482 555 34,000 -60 Descending Atlanta Center
05:29PM 35.2258 -80.3878 202° Southwest 482 555 34,000  Level Atlanta Center
05:30PM 35.1025 -80.4492 202° Southwest 488 562 34,000 -60 Level Atlanta Center
05:33PM 34.6700 -80.6636 202° Southwest 474 545 33,900  Descending Jacksonville Center
05:34PM 34.5397 -80.7275 202° Southwest 492 566 34,000  Climbing Jacksonville Center
05:35PM 34.4178 -80.7883 202° Southwest 487 560 34,000  Level Jacksonville Center
05:36PM 34.2956 -80.8442 201° Southwest 480 552 34,000 -60 Level Jacksonville Center
05:37PM 34.1794 -80.9019 202° Southwest 468 539 33,900  Descending Jacksonville Center
05:38PM 34.0575 -80.9625 202° Southwest 468 539 34,000  Climbing Jacksonville Center
05:39PM 33.9350 -81.0153 200° South 468 539 33,900 -60 Descending Jacksonville Center
05:40PM 33.8014 -80.9981 174° South 458 527 33,900  Level Jacksonville Center
05:41PM 33.6933 -80.8906 140° Southeast 448 516 34,000  Climbing Jacksonville Center
05:42PM 33.5872 -80.7833 140° Southeast 469 540 34,000  Level Jacksonville Center
05:43PM 33.4550 -80.7392 164° South 483 556 34,000  Level Jacksonville Center
05:44PM 33.3281 -80.7719 192° South 456 525 34,000  Level Jacksonville Center
05:45PM 33.2058 -80.8244 200° South 456 525 34,000  Level Jacksonville Center
05:46PM 33.0858 -80.8794 201° Southwest 462 532 34,000  Level Jacksonville Center
05:47PM 32.9656 -80.9292 199° South 462 532 34,000  Level Jacksonville Center
05:48PM 32.8556 -80.9761 200° South 467 537 34,000  Level Jacksonville Center
05:49PM 32.7353 -81.0281 200° South 467 537 34,000  Level Jacksonville Center
05:50PM 32.6067 -81.0800 199° South 461 531 34,000  Level Jacksonville Center
05:51PM 32.4986 -81.1264 200° South 466 536 34,000 -420 Level Jacksonville Center
05:52PM 32.3719 -81.1781 199° South 471 542 33,200 -1,200 Descending Jacksonville Center
05:53PM 32.2497 -81.2319 200° South 476 548 31,600 -1,620 Descending Jacksonville Center
05:54PM 32.1208 -81.2833 199° South 487 560 30,000 -1,560 Descending Jacksonville Center
05:55PM 31.9919 -81.3372 200° South 487 560 28,500 -1,620 Descending Jacksonville Center
05:56PM 31.8508 -81.3958 199° South 487 560 26,800 -1,500 Descending Jacksonville Center
05:57PM 31.7344 -81.4439 199° South 492 566 25,500 -1,320 Descending Jacksonville Center
05:58PM 31.5953 -81.5022 200° South 492 566 24,200 -1,200 Descending Jacksonville Center
05:59PM 31.4706 -81.5528 199° South 483 556 23,100 -1,200 Descending Jacksonville Center
06:00PM 31.3458 -81.6083 201° Southwest 483 556 21,800 -1,260 Descending Jacksonville Center
06:01PM 31.2250 -81.6561 199° South 477 549 20,600 -900 Descending Jacksonville Center
06:02PM 31.1067 -81.7036 199° South 459 528 20,000 -360 Descending Jacksonville Center
06:03PM 30.9900 -81.7536 200° South 459 528 19,900 -60 Descending Jacksonville Center
06:04PM 30.8756 -81.7986 199° South 454 522 19,900  Level Jacksonville Center
06:05PM 30.7611 -81.8458 200° South 441 507 20,000  Climbing Jacksonville Center
06:06PM 30.6508 -81.8906 199° South 431 496 19,900  Descending Jacksonville Center
06:07PM 30.5489 -81.9253 196° South 424 488 20,000  Climbing Jacksonville Center
06:08PM 30.4364 -81.9697 199° South 424 488 20,000 -60 Level Jacksonville Center
06:09PM 30.3283 -82.0167 201° Southwest 424 488 19,900 -180 Descending Jacksonville Center
06:10PM 30.2408 -82.0558 201° Southwest 421 484 19,700 -540 Descending Jacksonville Center
06:10PM 30.2158 -82.0608 190° South 424 488 19,400 -1,620 Descending Jacksonville Center
06:11PM 30.1200 -82.1050 202° Southwest 419 482 17,900 -2,040 Descending Jacksonville Center
06:12PM 30.0056 -82.1492 198° South 406 467 15,800 -2,580 Descending Jacksonville Center
06:13PM 29.9033 -82.1906 199° South 388 447 12,700 -2,700 Descending Jacksonville Center
06:14PM 29.7992 -82.2294 198° South 380 437 10,400 -1,980 Descending Jacksonville Center
06:15PM 29.7283 -82.2636 203° Southwest 271 312 8,900 -1,740 Descending Jacksonville Center
06:15PM 29.7200 -82.2611 165° South 353 406 8,400 -2,100 Descending Jacksonville Center
06:16PM 29.6533 -82.2736 189° South 284 327 6,800 -1,800 Descending Jacksonville Center
06:17PM 29.5739 -82.2644 174° South 281 323 5,200 -1,560 Descending Jacksonville Center
06:18PM 29.4986 -82.2556 174° South 275 316 3,700 -1,080 Descending Jacksonville Center
06:19PM 29.4214 -82.2489 176° South 254 292 3,100 -300 Descending Jacksonville Center
06:20PM 29.3547 -82.2444 177° South 242 278 3,100  Level Jacksonville Center
06:21PM 29.2919 -82.2544 188° South 255 293 3,100 -120 Level Jacksonville Center
06:22PM 29.2275 -82.2667 189° South 226 260 2,900 -540 Descending Jacksonville Center
06:23PM 29.1689 -82.2694 182° South 206 237 2,100 -780 Descending Jacksonville Center
06:24PM 29.1189 -82.2650 176° South 174 200 1,400 -720 Descending Jacksonville Center
06:25PM 29.1311 -82.2269 70° East 131 151 700 -480 Descending Jacksonville Center
06:26PM 29.1561 -82.2267 North 125 144 500 -240 Descending Jacksonville Center